aviador You're here:

KGGI Decoded Metar

GRINNELL REG in IA, USA
Report Time2017-06-25 18:55:00
UTC Time2017-06-25 19:07:31
Flight Rules vfr VFR
Wind300° at 16 Gusting to 23 kt
W.Decomp.*RWY 31: 15.7 kt HW 3.3 kt LCW
W.Rank300° ranks 3
Current wind is above 300° avg. (9.9)
Visibility9999 m
Phenomena:N/A
Clouds:Scattered 055 Hf
Expected CloudBase > 6,000 ft AGL from Temp-Dew spread
CeilingNone
Temp21°C (ISA +8)
Dew Point06°C (38% RH)
AAT14.3°C
QNH1023 hPa
Density Alt1,736 ft
Elevation1,007 ft
Report Wrong Elevation
Raw Report
METAR KGGI 251855Z AUTO 30016G23KT 10SM SCT055 21/06 A3022 RMK AO2
T02090062=

Extra information for KGGI:More info

Metar Taf Metar & Taf Last 4 Metars F.Rules Stats Wind Profile Meteogram Temp Stats Airport Information Weather charts Add Link Nearby VenuesMetar ALERT Operation Metar Decoded Social comments

AIRNAV info for KGGI